Ikke nødvendig med spesiell oppmerksomhet.   -   Det er ingen advarsler.

Nearby METAR Reports

 

ENRY - Rygge (nor-Afb), Norway
Distance from station: SØ 12km
Oppdatert: 24/10/2020 18:20
Noe regn, Overskyet
Noe regn, Overskyet
 Vind fra SSØ
Vind: SSØ 24 km/h
Temperatur: 11°C
Duggpunkt: 10°C
Fuktighet: 94%
Barometer: 998 hPa
Oversikt: Noe regn
Clouds: Overskyet
Visibility: 7 km
Cloud details: Overskyet 213 m
2020/10/25 01:20 ENRY 250120Z AUTO 15013KT 7000NDV -RA OVC007/// 11/10 Q0998
ENTO - Torp (civ/Nor-Af, Norway
Distance from station: SV 34km
Oppdatert: 24/10/2020 18:20
Kraftig regn, Overskyet
Kraftig regn, Overskyet
 Vind fra SSØ
Vind: SSØ 33 km/h
Temperatur: 11°C
Duggpunkt: 11°C
Fuktighet: 100%
Barometer: 997 hPa
Oversikt: Kraftig regn
Clouds: Overskyet
Visibility: 4 km
Cloud details: Overskyet 91 m
2020/10/25 01:20 ENTO 250120Z AUTO 15018KT 140V220 3600 +RA OVC003/// 11/11 Q0997
 
ENNO - Notodden, Norway
Distance from station: V 80km
Oppdatert: 24/10/2020 07:50
NOT Current
Hovedsaklig skyet
Hovedsaklig skyet
 Vind fra ØSØ
Vind: ØSØ 9 km/h
Temperatur: 8°C
Wind Chill: 6°C
Duggpunkt: 5°C
Fuktighet: 82%
Barometer: 1002 hPa
Clouds: Hovedsaklig skyet
Visibility: 10 km
Cloud details: Few Clouds 396 m
Hovedsaklig skyet 610 m
2020/10/24 14:50 ENNO 241450Z 11005KT 9999 FEW013 BKN020 08/05 Q1002
ENGM - Oslo/Gardermoen, Norway
Distance from station: NNØ 88km
Oppdatert: 24/10/2020 18:20
Noe regn, Overskyet
Noe regn, Overskyet
 Vind fra SØ
Vind: SØ 17 km/h
Temperatur: 8°C
Wind Chill: 5°C
Duggpunkt: 7°C
Fuktighet: 93%
Barometer: 997 hPa
Oversikt: Noe regn
Clouds: Overskyet
Visibility: 10 km
Cloud details: Overskyet 183 m
2020/10/25 01:20 ENGM 250120Z 14009KT 9999 -RA OVC006 08/07 Q0997
 
ESOK - Karlstad North, Sweden
Distance from station: Ø 153km
Oppdatert: 24/10/2020 18:20
Overskyet
Overskyet
 Vind fra SSØ
Vind: SSØ 19 km/h
Temperatur: 9°C
Wind Chill: 6°C
Duggpunkt: 9°C
Fuktighet: 100%
Barometer: 1002 hPa
Clouds: Overskyet
Visibility: 10 km
Cloud details: Few Clouds 274 m
Hovedsaklig skyet 427 m
Overskyet 1219 m
2020/10/25 01:20 ESOK 250120Z AUTO 16010KT 9999 FEW009/// BKN014/// OVC040/// 09/09 Q1002
ESST - Torsby, Sweden
Distance from station: ØNØ 154km
Oppdatert: 24/10/2020 18:20
Overskyet
Overskyet
 Vind fra SSØ
Vind: SSØ 17 km/h
Temperatur: 8°C
Wind Chill: 5°C
Duggpunkt: 7°C
Fuktighet: 93%
Barometer: 1001 hPa
Clouds: Overskyet
Visibility: 10 km
Cloud details: Overskyet 152 m
2020/10/25 01:20 ESST 250120Z AUTO 15009KT 9999 OVC005/// 08/07 Q1001
 
ESGT - Trollhattan (pvt, Sweden
Distance from station: SØ 159km
Oppdatert: 24/10/2020 18:20
Overskyet
Overskyet
 Vind fra S
Vind: S 24 km/h
Temperatur: 10°C
Wind Chill: 7°C
Duggpunkt: 9°C
Fuktighet: 94%
Barometer: 1001 hPa
Clouds: Overskyet
Visibility: 10 km
Cloud details: Hovedsaklig skyet 335 m
Hovedsaklig skyet 396 m
Overskyet 579 m
2020/10/25 01:20 ESGT 250120Z AUTO 17013KT 9999 BKN011/// BKN013/// OVC019/// 10/09 Q1001
ESIB - Satenas (swe-Afb, Sweden
Distance from station: SØ 164km
Oppdatert: 24/10/2020 18:20
Overskyet
Overskyet
 Vind fra SSØ
Vind: SSØ 17 km/h
Temperatur: 10°C
Wind Chill: 8°C
Duggpunkt: 10°C
Fuktighet: 100%
Barometer: 1002 hPa
Clouds: Overskyet
Visibility: 10 km
Cloud details: Hovedsaklig skyet 396 m
Overskyet 488 m
2020/10/25 01:20 ESIB 250120Z AUTO 16009KT 9999 BKN013/// OVC016/// 10/10 Q1002
 
ENCN - Kristiansand/Kje, Norway
Distance from station: SV 202km
Oppdatert: 24/10/2020 18:20
Yr, Overskyet
Yr, Overskyet
 Vind fra S
Vind: S 33 km/h, Vindkast: 54 km/h
Temperatur: 13°C
Duggpunkt: 12°C
Fuktighet: 94%
Barometer: 993 hPa
Oversikt: Yr
Clouds: Overskyet
Visibility: 6 km
Cloud details: Overskyet 152 m
2020/10/25 01:20 ENCN 250120Z AUTO 17018G29KT 6000 DZ OVC005/// 13/12 Q0993
EKSN - Sindal Airport, Denmark
Distance from station: S 217km
Oppdatert: 23/10/2020 05:50
NOT Current
Few Clouds
Few Clouds
 Vind fra V
Vind: V 22 km/h
Temperatur: 12°C
Duggpunkt: 6°C
Fuktighet: 67%
Barometer: 1005 hPa
Clouds: Few Clouds
Visibility: 10 km
Cloud details: Few Clouds 1372 m
2020/10/23 12:50 EKSN 231250Z 26012KT 9999 FEW045 12/06 Q1005
 
ESGG - Goteborg/Landvet, Sweden
Distance from station: SSØ 220km
Oppdatert: 24/10/2020 18:20
Overskyet
Overskyet
 Vind fra S
Vind: S 28 km/h
Temperatur: 10°C
Wind Chill: 7°C
Duggpunkt: 9°C
Fuktighet: 94%
Barometer: 1002 hPa
Clouds: Overskyet
Visibility: 10 km
Cloud details: Overskyet 183 m
2020/10/25 01:20 ESGG 250120Z 18015KT 9999 OVC006 10/09 Q1002
ESGR - Skovde Airport, Sweden
Distance from station: ØSØ 221km
Oppdatert: 24/10/2020 18:20
Overskyet
Overskyet
 Vind fra SSØ
Vind: SSØ 13 km/h
Temperatur: 8°C
Wind Chill: 6°C
Duggpunkt: 7°C
Fuktighet: 93%
Barometer: 1004 hPa
Clouds: Overskyet
Visibility: 10 km
Cloud details: Overskyet 1463 m
2020/10/25 01:20 ESGR 250120Z AUTO 16007KT 9999 OVC048/// 08/07 Q1004
 
ESOE - Orebro (private), Sweden
Distance from station: Ø 252km
Oppdatert: 24/10/2020 18:20
Overskyet
Overskyet
 Vind fra NØ
Vind: NØ 6 km/h
Temperatur: 4°C
Duggpunkt: 3°C
Fuktighet: 93%
Barometer: 1005 hPa
Clouds: Overskyet
Visibility: 10 km
Cloud details: Overskyet 91 m
2020/10/25 01:20 ESOE 250120Z AUTO 05003KT 9999 VV003 04/03 Q1005
EKYT - Alborg, Denmark
Distance from station: S 264km
Oppdatert: 24/10/2020 18:20
Overskyet
Overskyet
 Vind fra SSØ
Vind: SSØ 30 km/h
Temperatur: 12°C
Duggpunkt: 11°C
Fuktighet: 94%
Barometer: 998 hPa
Clouds: Overskyet
Visibility: 10 km
Cloud details: Overskyet 427 m
2020/10/25 01:20 EKYT 250120Z AUTO 16016KT 9999 OVC014/// 12/11 Q0998
 
ENSG - Sogndal/Haukasen, Norway
Distance from station: NV 269km
Oppdatert: 24/10/2020 04:20
NOT Current
Delvis tåke
Delvis tåke
 Vind fra ØNØ
Vind: ØNØ 11 km/h
Oversikt: Delvis tåke
Visibility: 10 km
2020/10/24 11:20 ENSG 241120Z 07006KT 9999 0600E PRFG FEW/// SCT040 02/02 Q0999 RMK WIND 3806FT 18014KT
ESGJ - Jonkoping Airpor, Sweden
Distance from station: SØ 273km
Oppdatert: 24/10/2020 18:20
Overskyet
Overskyet
 Vind fra SSØ
Vind: SSØ 17 km/h
Temperatur: 8°C
Wind Chill: 5°C
Duggpunkt: 7°C
Fuktighet: 93%
Barometer: 1004 hPa
Clouds: Overskyet
Visibility: 10 km
Cloud details: Overskyet 152 m
2020/10/25 01:20 ESGJ 250120Z AUTO 16009KT 9999 OVC005/// 08/07 Q1004
 
ENZV - Stavanger/Sola(A, Norway
Distance from station: V 292km
Oppdatert: 24/10/2020 17:50
Noe regn, Overskyet
Noe regn, Overskyet
 Vind fra S
Vind: S 35 km/h, Vindkast: 56 km/h
Temperatur: 13°C
Duggpunkt: 12°C
Fuktighet: 94%
Barometer: 986 hPa
Oversikt: Noe regn
Clouds: Overskyet
Visibility: 6 km
Cloud details: Few Clouds 183 m
Hovedsaklig skyet 274 m
Overskyet 366 m
2020/10/25 00:50 ENZV 250050Z 17019G30KT 6000 -RA FEW006 BKN009 OVC012 13/12 Q0986
ESSD - Borlange (swe-Af, Sweden
Distance from station: ØNØ 292km
Oppdatert: 24/10/2020 18:20
Overskyet
Overskyet
 Vind fra SSØ
Vind: SSØ 7 km/h
Temperatur: 4°C
Wind Chill: 2°C
Duggpunkt: 3°C
Fuktighet: 93%
Barometer: 1004 hPa
Clouds: Overskyet
Visibility: 10 km
Cloud details: Overskyet 91 m
2020/10/25 01:20 ESSD 250120Z AUTO 15004KT 080V200 9999 OVC003/// 04/03 Q1004
 
ENSO - Stord/Soerstokke, Norway
Distance from station: V 300km
Oppdatert: 23/10/2020 10:20
NOT Current
Hovedsaklig skyet
Hovedsaklig skyet
 Vind fra ØSØ
Vind: ØSØ 20 km/h
Temperatur: 8°C
Wind Chill: 4°C
Duggpunkt: 3°C
Fuktighet: 71%
Barometer: 1000 hPa
Clouds: Hovedsaklig skyet
Visibility: 10 km
Cloud details: Few Clouds 975 m
Delvis skyet 1219 m
Hovedsaklig skyet 2438 m
2020/10/23 17:20 ENSO 231720Z 12011KT 9999 FEW032 SCT040 BKN080 08/03 Q1000
ESCF - Linkoping/Malmen, Sweden
Distance from station: ØSØ 305km
Oppdatert: 24/10/2020 18:20
Overskyet
Overskyet
 Vind fra S
Vind: S 7 km/h
Temperatur: 5°C
Wind Chill: 3°C
Duggpunkt: 5°C
Fuktighet: 100%
Barometer: 1006 hPa
Clouds: Overskyet
Visibility: 10 km
Cloud details: Delvis skyet 1646 m
Overskyet 6706 m
2020/10/25 01:20 ESCF 250120Z AUTO 17004KT 9999 SCT054/// OVC220/// 05/05 Q1006